Time;durP1;ratioP1;P1;durP2;ratioP2;P2;SDS_P1;SDS_P2;PMS_P1;PMS_P2;Temp;Humidity;BMP_temperature;BMP_pressure;BME280_temperature;BME280_humidity;BME280_pressure;Samples;Min_cycle;Max_cycle;Signal;HPM_P1;HPM_P2
2022/07/05 00:02:00;;;;;;;;;3.25;3.00;;;;;21.47;34.44;101762.09;5020167;28;45267;-61
2022/07/05 00:04:25;;;;;;;;;2.00;2.00;;;;;21.48;34.61;101763.84;5018812;28;45491;-61
2022/07/05 00:09:35;;;;;;;;;1.25;1.25;;;;;21.41;34.58;101761.44;5020328;28;45303;-61
2022/07/05 00:12:00;;;;;;;;;3.00;2.00;;;;;21.39;34.66;101768.63;5020144;28;46292;-61
2022/07/05 00:14:26;;;;;;;;;3.00;2.25;;;;;21.36;35.02;101758.09;5020172;28;45476;-61
2022/07/05 00:16:51;;;;;;;;;3.25;3.00;;;;;21.35;34.69;101763.50;5020534;28;45220;-61
2022/07/05 00:19:17;;;;;;;;;2.00;2.00;;;;;21.34;34.97;101761.78;5020091;28;45173;-61
2022/07/05 00:21:42;;;;;;;;;1.75;1.75;;;;;21.30;34.65;101763.72;5020022;28;45293;-61
2022/07/05 00:24:08;;;;;;;;;2.00;2.00;;;;;21.25;34.67;101760.38;5019882;28;45392;-61
2022/07/05 00:26:33;;;;;;;;;2.00;2.00;;;;;21.25;34.94;101763.03;5020389;28;45244;-61
2022/07/05 00:28:58;;;;;;;;;1.50;1.50;;;;;21.23;34.99;101767.56;5019842;28;48943;-62
2022/07/05 00:31:24;;;;;;;;;2.25;2.00;;;;;21.20;34.89;101765.03;5019969;28;45307;-61
2022/07/05 00:33:49;;;;;;;;;1.75;1.75;;;;;21.20;34.73;101765.03;5019908;28;45260;-62
2022/07/05 00:36:14;;;;;;;;;3.50;3.50;;;;;21.17;35.15;101760.69;5020157;28;45486;-62
2022/07/05 00:38:40;;;;;;;;;2.00;1.75;;;;;21.17;35.15;101757.13;5019941;28;45330;-62
2022/07/05 00:41:05;;;;;;;;;2.00;2.00;;;;;21.11;35.36;101751.13;5019754;28;45467;-62
2022/07/05 00:43:30;;;;;;;;;2.25;2.25;;;;;21.13;35.32;101760.88;5019612;28;45393;-62
2022/07/05 00:45:56;;;;;;;;;2.25;2.00;;;;;21.09;35.37;101757.47;5020205;28;45375;-62
2022/07/05 00:48:21;;;;;;;;;1.00;1.00;;;;;21.05;34.81;101754.06;5019724;28;45453;-62
2022/07/05 00:50:47;;;;;;;;;3.25;3.00;;;;;21.06;35.29;101762.97;5020242;28;47030;-62
2022/07/05 00:53:13;;;;;;;;;1.50;1.50;;;;;21.00;35.48;101757.88;5023368;28;45292;-62
2022/07/05 00:55:38;;;;;;;;;1.00;1.00;;;;;21.02;35.42;101758.66;5023741;28;45358;-62
2022/07/05 00:58:04;;;;;;;;;3.00;2.25;;;;;21.00;35.40;101761.41;5023113;28;45386;-62
2022/07/05 01:00:29;;;;;;;;;2.50;2.50;;;;;20.97;35.39;101753.53;5020005;28;47097;-62
2022/07/05 01:02:54;;;;;;;;;2.25;2.00;;;;;20.95;35.07;101763.41;5022965;28;45236;-62
2022/07/05 01:05:21;;;;;;;;;1.00;1.00;;;;;20.91;35.51;101759.97;5023174;28;45308;-62
2022/07/05 01:07:47;;;;;;;;;1.25;1.25;;;;;20.90;35.09;101762.72;5023283;28;45235;-62
2022/07/05 01:10:12;;;;;;;;;1.25;1.25;;;;;20.86;35.07;101756.63;5023068;28;45306;-62
2022/07/05 01:12:40;;;;;;;;;2.00;2.00;;;;;20.85;35.16;101759.38;5023265;28;45176;-62
2022/07/05 01:15:06;;;;;;;;;1.00;1.00;;;;;20.82;35.27;101756.81;5023414;28;45340;-61
2022/07/05 01:17:34;;;;;;;;;2.00;2.00;;;;;20.75;35.54;101757.09;5022744;28;45484;-62
2022/07/05 01:19:59;;;;;;;;;2.25;2.00;;;;;20.74;35.16;101757.13;5022987;28;45331;-61
2022/07/05 01:22:26;;;;;;;;;1.00;1.00;;;;;20.69;35.33;101754.66;5022368;28;48281;-61
2022/07/05 01:24:52;;;;;;;;;2.25;1.00;;;;;20.67;35.33;101759.16;5023289;28;45285;-61
2022/07/05 01:27:19;;;;;;;;;3.00;1.75;;;;;20.59;35.55;101748.81;5022713;28;45419;-61
2022/07/05 01:29:44;;;;;;;;;1.00;1.00;;;;;20.57;35.47;101752.47;5023109;28;46303;-61
2022/07/05 01:32:10;;;;;;;;;1.00;1.00;;;;;20.52;35.70;101755.31;5022522;28;45316;-61
2022/07/05 01:34:39;;;;;;;;;1.00;1.00;;;;;20.48;35.36;101752.81;5023137;28;45245;-60
2022/07/05 01:37:05;;;;;;;;;0.75;0.00;;;;;20.43;35.90;101750.34;5022517;28;45220;-59
2022/07/05 01:39:31;;;;;;;;;3.00;1.00;;;;;20.41;35.99;101747.72;5022643;28;47078;-58
2022/07/05 01:41:57;;;;;;;;;0.50;0.50;;;;;20.37;35.84;101745.25;5021326;28;45424;-58
2022/07/05 01:44:22;;;;;;;;;2.25;1.00;;;;;20.33;35.69;101751.66;5022835;28;45544;-58
2022/07/05 01:46:53;;;;;;;;;1.25;1.25;;;;;20.28;35.88;101747.34;5022507;28;45218;-60
2022/07/05 01:49:21;;;;;;;;;1.00;1.00;;;;;20.24;35.74;101750.22;5022336;28;45363;-61
2022/07/05 01:52:01;;;;;;;;;3.50;1.00;;;;;20.17;36.09;101749.56;5022187;28;45355;-61
2022/07/05 01:54:27;;;;;;;;;2.00;2.00;;;;;20.16;35.92;101755.81;5022566;28;45323;-61
2022/07/05 01:56:53;;;;;;;;;1.00;1.00;;;;;20.13;35.95;101750.63;5022260;28;45323;-62
2022/07/05 01:59:18;;;;;;;;;1.00;1.00;;;;;20.11;35.94;101750.69;5036677;28;46593;-61
2022/07/05 02:01:43;;;;;;;;;2.00;0.75;;;;;20.09;36.14;101754.34;5019000;28;45245;-59
2022/07/05 02:04:10;;;;;;;;;2.50;1.00;;;;;20.05;36.03;101750.91;5022344;28;45493;-58
2022/07/05 02:06:36;;;;;;;;;1.50;1.50;;;;;20.04;36.08;101745.63;5021928;28;45253;-61
2022/07/05 02:09:04;;;;;;;;;1.00;1.00;;;;;20.01;36.58;101751.06;5022123;28;46257;-61
2022/07/05 02:11:29;;;;;;;;;4.00;1.00;;;;;19.96;36.51;101751.25;5022062;28;45477;-61
2022/07/05 02:13:55;;;;;;;;;1.50;1.50;;;;;19.92;36.31;101757.63;5022299;28;45403;-61
2022/07/05 02:16:27;;;;;;;;;2.25;1.25;;;;;19.88;36.30;101754.19;5021987;28;45564;-61
2022/07/05 02:18:53;;;;;;;;;2.00;1.00;;;;;19.84;36.42;101757.06;5022051;28;46211;-61
2022/07/05 02:21:19;;;;;;;;;2.00;2.00;;;;;19.79;36.60;101758.03;5021603;28;45237;-62
2022/07/05 02:23:44;;;;;;;;;2.00;2.00;;;;;19.73;36.80;101760.06;5021708;28;45174;-61
2022/07/05 02:26:10;;;;;;;;;1.50;0.75;;;;;19.67;36.95;101754.97;5021884;28;45343;-62
2022/07/05 02:28:35;;;;;;;;;1.75;1.00;;;;;19.62;36.82;101752.44;5022027;28;46060;-62
2022/07/05 02:31:00;;;;;;;;;2.00;1.00;;;;;19.59;36.69;101749.91;5021705;28;45303;-62
2022/07/05 02:33:26;;;;;;;;;1.00;1.00;;;;;19.56;36.90;101755.34;5022182;28;45252;-62
2022/07/05 02:35:51;;;;;;;;;1.50;1.50;;;;;19.50;36.90;101751.13;5021708;28;45388;-62
2022/07/05 02:38:16;;;;;;;;;2.00;0.75;;;;;19.47;36.65;101754.75;5021770;28;46858;-62
2022/07/05 02:40:42;;;;;;;;;1.25;1.00;;;;;19.44;36.89;101757.53;5021727;28;45231;-62
2022/07/05 02:43:07;;;;;;;;;2.00;1.00;;;;;19.42;36.89;101756.72;5021932;28;45360;-62
2022/07/05 02:45:32;;;;;;;;;1.00;1.00;;;;;19.40;36.82;101750.56;5021606;28;45319;-62
2022/07/05 02:47:58;;;;;;;;;2.25;1.25;;;;;19.36;36.85;101754.28;5021066;28;55349;-62
2022/07/05 02:50:23;;;;;;;;;2.50;1.75;;;;;19.35;36.98;101757.84;5021260;28;45335;-62
2022/07/05 02:52:48;;;;;;;;;3.00;2.00;;;;;19.32;37.02;101749.97;5021977;28;45425;-62
2022/07/05 02:55:14;;;;;;;;;1.00;1.00;;;;;19.30;36.81;101742.00;5021489;28;45291;-62
2022/07/05 02:57:39;;;;;;;;;2.50;1.75;;;;;19.29;37.29;101745.59;5021484;28;45385;-62
2022/07/05 03:00:06;;;;;;;;;2.25;1.00;;;;;19.27;37.11;101744.81;5016867;28;45527;-62
2022/07/05 03:02:31;;;;;;;;;1.25;1.25;;;;;19.26;37.48;101743.06;5021346;28;45309;-62
2022/07/05 03:04:57;;;;;;;;;1.00;1.00;;;;;19.24;37.24;101746.69;5021020;28;45296;-62
2022/07/05 03:07:22;;;;;;;;;2.00;1.50;;;;;19.21;37.48;101744.16;5021381;28;45289;-62
2022/07/05 03:09:48;;;;;;;;;3.75;2.50;;;;;19.19;37.46;101749.50;5021337;28;45150;-62
2022/07/05 03:12:13;;;;;;;;;2.50;2.50;;;;;19.17;37.92;101748.72;5021043;28;45328;-62
2022/07/05 03:14:38;;;;;;;;;2.00;2.00;;;;;19.16;37.76;101752.28;5020976;28;45220;-62
2022/07/05 03:17:04;;;;;;;;;1.00;1.00;;;;;19.12;37.61;101756.00;5036419;28;47110;-62
2022/07/05 03:19:29;;;;;;;;;3.50;3.00;;;;;19.14;37.67;101762.13;5021218;28;45316;-62
2022/07/05 03:21:54;;;;;;;;;2.00;2.00;;;;;19.09;37.95;101751.63;5021219;28;45478;-62
2022/07/05 03:24:20;;;;;;;;;5.25;2.75;;;;;19.10;37.90;101768.50;5020830;28;45583;-62
2022/07/05 03:26:45;;;;;;;;;3.00;3.00;;;;;19.07;37.99;101760.59;5021108;28;45340;-62
2022/07/05 03:29:10;;;;;;;;;3.75;3.75;;;;;19.05;37.97;101765.09;5020776;28;46978;-62
2022/07/05 03:31:36;;;;;;;;;4.75;3.00;;;;;19.04;38.32;101761.56;5021114;28;45532;-61
2022/07/05 03:34:01;;;;;;;;;3.75;2.25;;;;;19.02;38.39;101763.41;5020882;28;45557;-61
2022/07/05 03:36:27;;;;;;;;;2.00;2.00;;;;;19.00;38.18;101766.16;5020929;28;45339;-61
2022/07/05 03:38:52;;;;;;;;;3.00;2.75;;;;;18.98;38.24;101767.09;5036161;28;46142;-61
2022/07/05 03:41:17;;;;;;;;;4.25;3.25;;;;;18.97;38.71;101771.56;5021124;28;45308;-61
2022/07/05 03:43:43;;;;;;;;;1.25;1.00;;;;;18.97;38.58;101762.72;5020596;28;45312;-61
2022/07/05 03:46:08;;;;;;;;;3.00;3.00;;;;;18.94;38.80;101774.34;5020711;28;49384;-61
2022/07/05 03:48:33;;;;;;;;;2.75;2.75;;;;;18.92;38.66;101772.66;5020715;28;45370;-61
2022/07/05 03:50:59;;;;;;;;;2.00;2.00;;;;;18.91;38.68;101784.22;5019325;28;45297;-62
2022/07/05 03:53:24;;;;;;;;;3.25;3.00;;;;;18.90;38.69;101785.09;5019479;28;45542;-61
2022/07/05 03:55:50;;;;;;;;;3.25;3.00;;;;;18.89;38.74;101788.69;5036015;28;47753;-61
2022/07/05 03:58:15;;;;;;;;;5.00;5.00;;;;;18.88;38.91;101792.25;5020235;28;52702;-61
2022/07/05 04:00:40;;;;;;;;;4.50;3.00;;;;;18.85;39.17;101782.56;5017061;28;45328;-61
2022/07/05 04:03:06;;;;;;;;;3.75;3.75;;;;;18.84;39.19;101787.03;5020276;28;45466;-62
2022/07/05 04:05:31;;;;;;;;;2.50;2.00;;;;;18.82;39.10;101782.69;5020187;28;46093;-65
2022/07/05 04:07:57;;;;;;;;;3.00;3.00;;;;;18.82;39.11;101785.34;5020494;28;45171;-61
2022/07/05 04:10:23;;;;;;;;;4.00;3.25;;;;;18.82;39.37;101788.88;5036025;28;45436;-62
2022/07/05 04:12:48;;;;;;;;;4.25;3.00;;;;;18.80;39.12;101795.16;5020449;28;45292;-61
2022/07/05 04:15:14;;;;;;;;;7.00;4.50;;;;;18.79;39.44;101801.41;5020311;28;45667;-61
2022/07/05 04:17:53;;;;;;;;;3.00;3.00;;;;;18.80;39.53;101803.16;5020096;28;45388;-61
2022/07/05 04:20:22;;;;;;;;;2.50;2.50;;;;;18.78;39.45;101800.53;5020158;28;45327;-61
2022/07/05 04:22:49;;;;;;;;;5.00;5.00;;;;;18.77;39.62;101809.44;5020086;28;45209;-60
2022/07/05 04:25:17;;;;;;;;;2.50;2.25;;;;;18.76;39.68;101810.38;5019966;28;46220;-60
2022/07/05 04:27:48;;;;;;;;;5.00;4.00;;;;;18.76;39.49;101805.03;5019903;28;45466;-59
2022/07/05 04:30:14;;;;;;;;;4.75;4.00;;;;;18.75;39.74;101800.63;5020254;28;45228;-59
2022/07/05 04:32:40;;;;;;;;;3.25;3.25;;;;;18.77;39.75;101805.94;5019735;28;45746;-59
2022/07/05 04:35:06;;;;;;;;;3.00;3.00;;;;;18.75;39.65;101811.28;5019676;28;46320;-59
2022/07/05 04:37:31;;;;;;;;;5.00;3.00;;;;;18.72;39.95;101803.41;5019850;28;45347;-59
2022/07/05 04:39:57;;;;;;;;;4.25;4.00;;;;;18.74;39.92;101806.91;5020254;28;45319;-59
2022/07/05 04:42:22;;;;;;;;;6.25;4.75;;;;;18.73;39.89;101810.47;5019960;28;45307;-59
2022/07/05 04:44:47;;;;;;;;;5.50;5.00;;;;;18.74;39.95;101808.66;5019816;28;45368;-59
2022/07/05 04:47:12;;;;;;;;;7.25;4.25;;;;;18.74;39.95;101816.66;5019644;28;45458;-59
2022/07/05 04:49:38;;;;;;;;;5.25;5.00;;;;;18.73;40.03;101817.56;5019967;28;45299;-59
2022/07/05 04:52:03;;;;;;;;;7.25;4.75;;;;;18.73;40.00;101809.59;5019521;28;45484;-59
2022/07/05 04:54:29;;;;;;;;;5.25;5.25;;;;;18.73;40.07;101815.81;5018527;28;46958;-59
2022/07/05 04:56:54;;;;;;;;;7.00;3.50;;;;;18.73;40.27;101815.81;5019680;28;45401;-59
2022/07/05 04:59:19;;;;;;;;;9.75;6.00;;;;;18.73;40.26;101815.81;5018879;28;45400;-59
2022/07/05 05:01:45;;;;;;;;;5.75;5.75;;;;;18.73;40.30;101825.56;5017168;28;45433;-59
2022/07/05 05:04:10;;;;;;;;;8.25;4.50;;;;;18.75;40.37;101819.25;5034704;28;47028;-59
2022/07/05 05:06:35;;;;;;;;;6.50;6.00;;;;;18.73;40.26;101805.16;5019454;28;45237;-59
2022/07/05 05:09:01;;;;;;;;;8.50;5.00;;;;;18.77;40.36;101816.56;5019837;28;45394;-59
2022/07/05 05:11:26;;;;;;;;;4.25;4.25;;;;;18.76;40.68;101820.16;5019701;28;45454;-59
2022/07/05 05:13:51;;;;;;;;;6.50;6.50;;;;;18.76;40.66;101815.69;5019774;28;45204;-60
2022/07/05 05:16:16;;;;;;;;;6.00;5.00;;;;;18.75;40.57;101810.41;5019362;28;45296;-59
2022/07/05 05:18:42;;;;;;;;;6.25;5.75;;;;;18.78;40.84;101815.63;5018655;28;45179;-59
2022/07/05 05:21:07;;;;;;;;;8.50;6.00;;;;;18.77;40.73;101809.44;5019280;28;45332;-59
2022/07/05 05:23:32;;;;;;;;;6.75;4.75;;;;;18.79;40.61;101817.38;5019502;28;47234;-60
2022/07/05 05:25:58;;;;;;;;;7.00;5.75;;;;;18.80;40.64;101821.78;5019194;28;45220;-61
2022/07/05 05:28:23;;;;;;;;;5.50;5.00;;;;;18.81;40.55;101827.06;5019629;28;45532;-61
2022/07/05 05:30:48;;;;;;;;;8.50;7.00;;;;;18.82;40.76;101823.47;5018679;28;45601;-61
2022/07/05 05:33:14;;;;;;;;;8.25;7.00;;;;;18.83;40.61;101824.38;5019445;28;47091;-61
2022/07/05 05:35:39;;;;;;;;;4.75;4.75;;;;;18.83;40.74;101825.22;5019050;28;45235;-61
2022/07/05 05:38:04;;;;;;;;;6.75;5.00;;;;;18.86;41.17;101828.72;5023144;28;45301;-61
2022/07/05 05:40:30;;;;;;;;;4.25;3.50;;;;;18.82;41.23;101830.63;5022551;28;45295;-61
2022/07/05 05:42:56;;;;;;;;;7.25;6.00;;;;;18.82;40.97;101836.81;5022523;28;45646;-61
2022/07/05 05:45:22;;;;;;;;;8.25;6.75;;;;;18.80;40.94;101838.66;5022451;28;45324;-61
2022/07/05 05:47:50;;;;;;;;;9.00;6.75;;;;;18.83;41.26;101841.22;5022660;28;45382;-61
2022/07/05 05:50:28;;;;;;;;;6.00;3.00;;;;;18.84;41.06;101842.06;5020976;28;45509;-61
2022/07/05 05:52:54;;;;;;;;;6.50;4.00;;;;;18.87;41.33;101846.44;5022444;28;45344;-61
2022/07/05 05:55:21;;;;;;;;;8.75;6.50;;;;;18.87;41.29;101855.31;5022329;28;45253;-61
2022/07/05 05:57:47;;;;;;;;;7.25;6.25;;;;;18.88;41.67;101864.16;5022772;28;45363;-61
2022/07/05 06:00:13;;;;;;;;;5.00;5.00;;;;;18.90;41.46;101865.00;5018722;28;46323;-61
2022/07/05 06:02:39;;;;;;;;;7.25;6.25;;;;;18.88;41.19;101856.16;5022080;28;45391;-61
2022/07/05 06:05:05;;;;;;;;;5.75;5.75;;;;;18.91;41.73;101866.78;5021842;28;45319;-61
2022/07/05 06:07:30;;;;;;;;;4.00;4.00;;;;;18.90;41.71;101862.31;5022326;28;45268;-61
2022/07/05 06:09:55;;;;;;;;;8.00;8.00;;;;;18.92;41.73;101865.84;5022245;28;45231;-61
2022/07/05 06:12:21;;;;;;;;;7.75;7.75;;;;;18.94;41.57;101861.34;5022282;28;45248;-61
2022/07/05 06:14:46;;;;;;;;;8.25;7.25;;;;;18.94;42.05;101861.34;5022211;28;45474;-61
2022/07/05 06:17:11;;;;;;;;;4.75;3.00;;;;;18.96;41.80;101859.50;5037723;28;45610;-61
2022/07/05 06:19:37;;;;;;;;;7.00;6.00;;;;;18.99;41.60;101862.06;5022030;28;45241;-61
2022/07/05 06:22:02;;;;;;;;;7.00;7.00;;;;;19.02;41.64;101858.41;5036991;28;45362;-61
2022/07/05 06:24:28;;;;;;;;;7.50;6.50;;;;;19.04;41.71;101856.59;5021813;28;45146;-60
2022/07/05 06:26:53;;;;;;;;;4.75;4.25;;;;;19.04;41.77;101848.59;5022318;28;45263;-61
2022/07/05 06:29:18;;;;;;;;;9.50;6.50;;;;;19.07;42.05;101856.47;5020636;28;45907;-62
2022/07/05 06:31:43;;;;;;;;;8.50;8.50;;;;;19.08;42.13;101864.44;5021695;28;45217;-61
2022/07/05 06:34:09;;;;;;;;;7.25;6.25;;;;;19.08;41.77;101864.44;5021393;28;45259;-61
2022/07/05 06:36:34;;;;;;;;;8.25;6.75;;;;;19.12;41.90;101868.75;5021687;28;45369;-61
2022/07/05 06:38:59;;;;;;;;;7.50;7.00;;;;;19.11;41.72;101860.81;5021772;28;45462;-61
2022/07/05 06:41:25;;;;;;;;;13.25;11.25;;;;;19.12;41.90;101863.41;5022005;28;45514;-62
2022/07/05 06:43:50;;;;;;;;;10.25;8.75;;;;;19.15;42.47;101865.09;5021481;28;45400;-61
2022/07/05 06:46:15;;;;;;;;;7.25;7.25;;;;;19.17;42.14;101866.81;5022077;28;45330;-61
2022/07/05 06:48:41;;;;;;;;;8.00;6.75;;;;;19.18;42.13;101865.00;5020321;28;45479;-60
2022/07/05 06:51:06;;;;;;;;;11.00;9.00;;;;;19.15;42.12;101863.31;5021302;28;45611;-60
2022/07/05 06:53:31;;;;;;;;;8.50;7.50;;;;;19.17;42.51;101874.78;5021407;28;45322;-60
2022/07/05 06:55:57;;;;;;;;;9.00;6.75;;;;;19.17;42.33;101872.13;5019530;28;45386;-63
2022/07/05 06:58:22;;;;;;;;;9.50;7.75;;;;;19.19;42.23;101874.72;5021349;28;45268;-62
2022/07/05 07:00:48;;;;;;;;;9.75;7.50;;;;;19.21;42.33;101864.91;5018156;28;45994;-62
2022/07/05 07:03:13;;;;;;;;;6.00;6.00;;;;;19.25;42.31;101871.00;5020525;28;45346;-62
2022/07/05 07:05:39;;;;;;;;;5.75;5.50;;;;;19.28;42.22;101878.88;5021111;28;45362;-62
2022/07/05 07:10:48;;;;;;;;;6.25;6.00;;;;;19.33;42.22;101874.28;5020827;28;45851;-62
2022/07/05 07:13:14;;;;;;;;;7.75;7.00;;;;;19.37;42.00;101872.38;5020673;28;45648;-62
2022/07/05 07:15:40;;;;;;;;;14.50;9.00;;;;;19.40;42.31;101881.16;5020917;28;45455;-62
2022/07/05 07:18:06;;;;;;;;;12.50;9.75;;;;;19.41;42.31;101874.91;5021006;28;45224;-62
2022/07/05 07:20:31;;;;;;;;;6.50;6.50;;;;;19.45;42.45;101879.22;5019614;28;46590;-62
2022/07/05 07:22:56;;;;;;;;;9.00;8.00;;;;;19.46;42.36;101875.63;5020992;28;45138;-62
2022/07/05 07:25:25;;;;;;;;;8.25;6.25;;;;;19.49;42.29;101878.16;5021153;28;45229;-62
2022/07/05 07:27:52;;;;;;;;;8.50;8.00;;;;;19.52;42.51;101879.91;5020474;28;45519;-62
2022/07/05 07:30:21;;;;;;;;;7.00;7.00;;;;;19.52;42.53;101882.56;5020723;28;46338;-62
2022/07/05 07:32:47;;;;;;;;;7.25;6.00;;;;;19.55;42.39;101884.25;5020608;28;45169;-62
2022/07/05 07:35:13;;;;;;;;;9.50;8.50;;;;;19.57;42.01;101885.94;5020533;28;45233;-62
2022/07/05 07:37:38;;;;;;;;;12.00;8.50;;;;;19.59;42.74;101886.72;5020612;28;45220;-63
2022/07/05 07:40:04;;;;;;;;;8.50;6.50;;;;;19.64;42.47;101886.59;5020674;28;45236;-63
2022/07/05 07:42:30;;;;;;;;;9.00;9.00;;;;;19.65;42.09;101883.88;5020593;28;45499;-63
2022/07/05 07:44:55;;;;;;;;;14.50;14.50;;;;;19.69;42.22;101884.63;5020886;28;45315;-63
2022/07/05 07:47:21;;;;;;;;;14.00;11.50;;;;;19.72;42.23;101891.66;5020360;28;45407;-63
2022/07/05 07:49:46;;;;;;;;;8.00;7.50;;;;;19.75;42.65;101887.09;5020356;28;45326;-63
2022/07/05 07:52:12;;;;;;;;;10.25;8.00;;;;;19.78;42.35;101891.44;5020333;28;45303;-63
2022/07/05 07:54:38;;;;;;;;;8.00;8.00;;;;;19.79;42.25;101888.72;5020577;28;45259;-63
2022/07/05 07:57:04;;;;;;;;;58.50;46.75;;;;;19.84;41.94;101890.41;5019763;28;52542;-63
2022/07/05 07:59:34;;;;;;;;;8.00;8.00;;;;;19.87;42.48;101887.63;5017395;28;46976;-63
2022/07/05 08:01:59;;;;;;;;;7.50;6.00;;;;;19.90;42.46;101890.16;5019771;28;45348;-63
2022/07/05 08:04:25;;;;;;;;;5.75;4.75;;;;;19.93;42.40;101879.41;5019061;28;45261;-63
2022/07/05 08:06:50;;;;;;;;;6.25;6.25;;;;;19.98;42.65;101886.31;5020125;28;45557;-63
2022/07/05 08:09:16;;;;;;;;;9.00;8.00;;;;;20.03;42.30;101880.81;5020366;28;46227;-63
2022/07/05 08:11:41;;;;;;;;;10.50;8.00;;;;;20.08;42.56;101883.31;5020183;28;45407;-63
2022/07/05 08:14:07;;;;;;;;;8.00;8.00;;;;;20.13;42.60;101884.03;5020485;28;45371;-63
2022/07/05 08:16:33;;;;;;;;;8.75;7.75;;;;;20.19;42.39;101885.56;5020094;28;45557;-63
2022/07/05 08:21:43;;;;;;;;;9.75;9.00;;;;;20.29;41.97;101876.34;5019952;28;45272;-63
2022/07/05 08:24:10;;;;;;;;;10.25;8.50;;;;;20.34;42.31;101885.03;5020014;28;45670;-63
2022/07/05 08:26:37;;;;;;;;;7.50;7.50;;;;;20.37;41.90;101886.72;5020420;28;45217;-63
2022/07/05 08:29:04;;;;;;;;;8.25;6.50;;;;;20.42;42.09;101882.06;5019785;28;46502;-63
2022/07/05 08:31:33;;;;;;;;;6.50;6.50;;;;;20.46;41.92;101884.59;5020050;28;45240;-63
2022/07/05 08:33:58;;;;;;;;;7.00;6.00;;;;;20.48;42.16;101873.84;5020125;28;45438;-64
2022/07/05 08:36:24;;;;;;;;;10.00;7.75;;;;;20.53;42.26;101879.88;5019932;28;45402;-64
2022/07/05 08:38:49;;;;;;;;;8.50;6.50;;;;;20.60;41.83;101878.72;5019856;28;46137;-64
2022/07/05 08:41:19;;;;;;;;;8.00;6.25;;;;;20.64;42.12;101879.47;5020198;28;45355;-64
2022/07/05 08:43:48;;;;;;;;;7.00;5.50;;;;;20.71;42.17;101877.47;5020040;28;45433;-64
2022/07/05 08:46:15;;;;;;;;;9.75;9.00;;;;;20.77;41.80;101875.41;5019857;28;45312;-64
2022/07/05 08:48:43;;;;;;;;;6.00;4.00;;;;;20.84;41.52;101877.84;5019535;28;45272;-64
2022/07/05 08:51:16;;;;;;;;;5.50;5.25;;;;;20.88;41.77;101869.66;5019517;28;45281;-64
2022/07/05 08:53:42;;;;;;;;;5.00;5.00;;;;;20.92;41.67;101865.06;5035361;28;45391;-64
2022/07/05 08:56:09;;;;;;;;;7.00;7.00;;;;;21.02;41.40;101865.53;5019937;28;45283;-64
2022/07/05 08:58:35;;;;;;;;;9.25;6.25;;;;;21.07;42.00;101871.59;5019440;28;46382;-64
2022/07/05 09:01:01;;;;;;;;;8.00;6.25;;;;;21.15;41.33;101871.28;5014800;28;45830;-64
2022/07/05 09:03:33;;;;;;;;;6.25;6.25;;;;;21.20;41.76;101867.47;5019477;28;45321;-64
2022/07/05 09:06:01;;;;;;;;;12.00;9.00;;;;;21.25;41.69;101867.28;5019473;28;45341;-64
2022/07/05 09:08:32;;;;;;;;;7.25;6.50;;;;;21.28;41.41;101864.47;5019463;28;45264;-64
2022/07/05 09:11:01;;;;;;;;;7.75;6.50;;;;;21.32;41.50;101862.53;5020075;28;45301;-64
2022/07/05 09:13:26;;;;;;;;;7.25;7.00;;;;;21.37;40.77;101866.78;5023361;28;45276;-64
2022/07/05 09:15:52;;;;;;;;;7.50;6.25;;;;;21.41;40.95;101855.00;5022853;28;45488;-64
2022/07/05 09:18:40;;;;;;;;;5.75;5.00;;;;;21.49;41.27;101860.03;5021956;28;47085;-64
2022/07/05 09:21:31;;;;;;;;;10.00;8.00;;;;;21.54;40.68;101868.72;5022603;28;45250;-64
2022/07/05 09:24:00;;;;;;;;;7.00;7.00;;;;;21.59;40.67;101860.53;5020777;28;45644;-65
2022/07/05 09:26:31;;;;;;;;;8.75;8.75;;;;;21.65;40.80;101864.78;5023090;28;45461;-64
2022/07/05 09:28:57;;;;;;;;;9.00;6.75;;;;;21.69;40.68;101864.56;5022240;28;45326;-64
2022/07/05 09:31:28;;;;;;;;;8.00;8.00;;;;;21.71;41.00;101864.47;5022786;28;45307;-65
2022/07/05 09:33:53;;;;;;;;;8.00;8.00;;;;;21.78;40.74;101865.09;5022750;28;45371;-64
2022/07/05 09:36:19;;;;;;;;;9.75;8.75;;;;;21.80;40.88;101868.56;5022766;28;45319;-65
2022/07/05 09:38:51;;;;;;;;;7.25;7.25;;;;;21.87;40.24;101864.69;5037985;28;48053;-64
2022/07/05 09:41:16;;;;;;;;;8.25;8.25;;;;;21.86;40.58;101855.81;5022714;28;45442;-65
2022/07/05 09:43:42;;;;;;;;;7.00;7.00;;;;;21.93;40.54;101861.75;5022711;28;45597;-65
2022/07/05 09:46:08;;;;;;;;;7.00;7.00;;;;;22.01;40.59;101867.63;5022515;28;45605;-65
2022/07/05 09:48:34;;;;;;;;;7.25;6.50;;;;;22.05;40.35;101865.69;5022334;28;46198;-65
2022/07/05 09:51:11;;;;;;;;;7.00;5.00;;;;;22.11;40.36;101862.72;5022439;28;45293;-65
2022/07/05 09:53:51;;;;;;;;;9.50;6.25;;;;;22.19;40.32;101871.28;5022503;28;45275;-65
2022/07/05 09:56:20;;;;;;;;;7.00;5.50;;;;;22.26;39.71;101873.69;5022549;28;45230;-65
2022/07/05 09:58:45;;;;;;;;;6.25;6.00;;;;;22.32;39.43;101871.56;5037952;28;46029;-65
2022/07/05 10:01:29;;;;;;;;;8.25;5.00;;;;;22.37;39.84;101869.59;5019240;28;45332;-64
2022/07/05 10:04:01;;;;;;;;;7.25;7.00;;;;;22.42;39.44;101860.50;5022387;28;45228;-65
2022/07/05 10:06:28;;;;;;;;;7.50;7.00;;;;;22.50;39.72;101861.88;5021973;28;45343;-65
2022/07/05 10:08:54;;;;;;;;;5.75;5.75;;;;;22.57;39.00;101862.44;5022215;28;45174;-65
2022/07/05 10:11:21;;;;;;;;;7.25;6.75;;;;;22.64;39.16;101865.69;5022037;28;45603;-65
2022/07/05 10:13:49;;;;;;;;;8.00;6.75;;;;;22.74;39.02;101872.34;5022490;28;45269;-65
2022/07/05 10:16:17;;;;;;;;;7.25;6.25;;;;;22.82;39.05;101869.31;5021927;28;45566;-65
2022/07/05 10:18:44;;;;;;;;;6.25;5.00;;;;;22.92;39.36;101864.34;5022082;28;47011;-65
2022/07/05 10:21:14;;;;;;;;;7.00;5.50;;;;;23.03;38.75;101872.75;5021675;28;45234;-65
2022/07/05 10:23:53;;;;;;;;;7.00;5.50;;;;;23.14;38.97;101870.41;5021967;28;45402;-65
2022/07/05 10:26:19;;;;;;;;;11.25;8.75;;;;;23.26;38.73;101877.00;5021916;28;45513;-64
2022/07/05 10:28:48;;;;;;;;;7.25;7.25;;;;;23.36;38.74;101872.94;5021828;28;47756;-64
2022/07/05 10:31:15;;;;;;;;;4.50;4.50;;;;;23.46;38.22;101875.13;5021872;28;45472;-65
2022/07/05 10:33:40;;;;;;;;;8.00;6.75;;;;;23.54;38.80;101867.56;5022009;28;45223;-64
2022/07/05 10:36:10;;;;;;;;;6.00;6.00;;;;;23.67;38.52;101865.13;5021783;28;45412;-65
2022/07/05 10:38:38;;;;;;;;;7.50;6.50;;;;;23.76;38.40;101870.03;5021672;28;45350;-64
2022/07/05 10:41:06;;;;;;;;;7.00;7.00;;;;;23.89;38.13;101872.91;5021830;28;45303;-64
2022/07/05 10:43:32;;;;;;;;;7.00;6.25;;;;;24.03;38.09;101864.16;5021611;28;45212;-65
2022/07/05 10:45:59;;;;;;;;;5.75;4.50;;;;;24.13;37.69;101861.88;5021338;28;45343;-65
2022/07/05 10:48:25;;;;;;;;;7.75;6.00;;;;;24.32;37.98;101861.72;5021435;28;47018;-64
2022/07/05 10:50:55;;;;;;;;;7.75;7.25;;;;;24.56;37.99;101856.81;5021284;28;45331;-64
2022/07/05 10:53:32;;;;;;;;;10.50;8.50;;;;;24.90;38.05;101854.91;5021609;28;45335;-64
2022/07/05 10:56:04;;;;;;;;;5.50;5.50;;;;;25.47;38.56;101858.81;5020419;28;45458;-64
2022/07/05 10:58:36;;;;;;;;;6.25;5.25;;;;;26.08;39.10;101856.94;5036317;28;47136;-65
2022/07/05 11:01:20;;;;;;;;;7.50;5.50;;;;;26.80;39.00;101850.63;5016190;28;45382;-65
2022/07/05 11:04:00;;;;;;;;;5.25;4.75;;;;;27.44;38.60;101859.94;5020629;28;45220;-66
2022/07/05 11:06:27;;;;;;;;;9.25;7.25;;;;;28.12;38.22;101853.41;5034814;28;45598;-66
2022/07/05 11:08:59;;;;;;;;;7.00;6.00;;;;;28.83;38.20;101850.09;5020174;28;46079;-65
2022/07/05 11:11:44;;;;;;;;;7.75;7.00;;;;;29.55;38.64;101846.50;5019700;28;45284;-65
2022/07/05 11:14:19;;;;;;;;;12.25;12.25;;;;;30.27;38.11;101849.91;5035240;28;45360;-65
2022/07/05 11:16:46;;;;;;;;;8.25;8.25;;;;;30.99;38.40;101848.53;5019580;28;45393;-65
2022/07/05 11:19:17;;;;;;;;;10.75;9.00;;;;;31.75;38.74;101850.31;5019595;28;45208;-66
2022/07/05 11:22:05;;;;;;;;;10.50;9.75;;;;;32.49;37.58;101843.78;5019301;28;45519;-66
2022/07/05 11:24:33;;;;;;;;;7.75;7.75;;;;;33.27;37.46;101847.56;5019436;28;45245;-67
2022/07/05 11:26:59;;;;;;;;;8.25;7.00;;;;;33.92;36.89;101846.94;5019859;28;45435;-67
2022/07/05 11:29:44;;;;;;;;;9.25;9.25;;;;;34.69;36.60;101860.34;5019537;28;45258;-66
2022/07/05 11:32:11;;;;;;;;;7.00;7.00;;;;;35.27;36.31;101857.16;5019365;28;45343;-66